createdAt,value
2022-08-09T00:00:20.711Z,1.20
2022-08-09T00:02:49.882Z,1.10
2022-08-09T00:06:19.655Z,1.43
2022-08-09T00:08:09.875Z,1.00
2022-08-09T00:10:40.023Z,0.98
2022-08-09T00:13:16.745Z,0.85
2022-08-09T00:15:59.894Z,1.00
2022-08-09T00:18:34.786Z,1.00
2022-08-09T00:21:07.993Z,1.30
2022-08-09T00:23:58.135Z,1.17
2022-08-09T00:26:30.124Z,1.10
2022-08-09T00:28:59.896Z,1.33
2022-08-09T00:31:57.375Z,1.10
2022-08-09T00:34:19.471Z,1.58
2022-08-09T00:36:48.138Z,1.38
2022-08-09T00:39:17.060Z,1.67
2022-08-09T00:44:14.738Z,1.42
2022-08-09T00:44:48.864Z,1.10
2022-08-09T00:47:15.909Z,1.30
2022-08-09T00:49:43.812Z,2.08
2022-08-09T00:52:22.796Z,1.90
2022-08-09T00:55:01.079Z,1.88
2022-08-09T00:57:34.630Z,1.90
2022-08-09T01:00:21.657Z,1.65
2022-08-09T01:02:57.757Z,2.35
2022-08-09T01:05:53.363Z,1.63
2022-08-09T01:08:33.687Z,1.67
2022-08-09T01:11:23.865Z,1.53
2022-08-09T01:14:05.404Z,1.77
2022-08-09T01:16:36.787Z,2.00
2022-08-09T01:19:42.544Z,1.63
2022-08-09T01:22:39.273Z,1.52
2022-08-09T01:25:12.460Z,1.93
2022-08-09T01:27:41.748Z,2.25
2022-08-09T01:30:33.512Z,2.00
2022-08-09T01:32:58.007Z,2.35
2022-08-09T01:35:38.283Z,2.70
2022-08-09T01:38:14.794Z,2.03
2022-08-09T01:40:52.319Z,2.50
2022-08-09T01:43:20.072Z,2.95
2022-08-09T01:45:54.149Z,2.03
2022-08-09T01:48:29.674Z,2.03
2022-08-09T01:51:00.295Z,2.73
2022-08-09T01:53:41.308Z,2.35
2022-08-09T01:56:10.375Z,2.78
2022-08-09T01:58:42.672Z,2.00
2022-08-09T02:01:11.225Z,2.70
2022-08-09T02:03:47.171Z,2.40
2022-08-09T02:06:17.135Z,3.70
2022-08-09T02:08:58.620Z,2.65
2022-08-09T02:11:40.245Z,3.15
2022-08-09T02:14:15.873Z,2.80
2022-08-09T02:16:59.968Z,2.27
2022-08-09T02:19:43.366Z,3.60
2022-08-09T02:22:38.519Z,2.90
2022-08-09T02:25:17.110Z,2.70
2022-08-09T02:28:00.652Z,2.60
2022-08-09T02:30:37.962Z,2.70
2022-08-09T02:33:16.950Z,2.55
2022-08-09T02:36:02.491Z,2.70
2022-08-09T02:38:38.587Z,2.67
2022-08-09T02:41:47.104Z,3.00
2022-08-09T02:44:29.473Z,2.50
2022-08-09T02:47:02.323Z,3.35
2022-08-09T02:49:38.988Z,2.65
2022-08-09T02:52:11.973Z,2.38
2022-08-09T02:54:54.004Z,2.30
2022-08-09T02:57:23.614Z,2.53
2022-08-09T03:00:21.278Z,2.38
2022-08-09T03:02:58.124Z,2.65
2022-08-09T03:05:26.573Z,2.25
2022-08-09T03:07:55.697Z,2.45
2022-08-09T03:10:24.902Z,2.73
2022-08-09T03:12:53.196Z,2.50
2022-08-09T03:15:22.934Z,2.65
2022-08-09T03:17:57.985Z,2.53
2022-08-09T03:20:29.409Z,2.65
2022-08-09T03:23:13.715Z,2.50
2022-08-09T03:25:57.995Z,2.75
2022-08-09T03:28:30.382Z,2.75
2022-08-09T03:30:57.985Z,2.58
2022-08-09T03:33:53.982Z,3.05
2022-08-09T03:36:16.374Z,2.53
2022-08-09T03:38:45.004Z,2.42
2022-08-09T03:41:19.058Z,2.97
2022-08-09T03:44:03.739Z,3.10
2022-08-09T03:46:33.453Z,2.90
2022-08-09T03:49:04.155Z,2.90
2022-08-09T03:51:55.622Z,2.95
2022-08-09T03:54:29.732Z,3.03
2022-08-09T03:56:58.164Z,2.80
2022-08-09T03:59:27.194Z,3.17
2022-08-09T04:01:59.219Z,2.83
2022-08-09T04:04:27.112Z,2.50
2022-08-09T04:07:03.900Z,3.58
2022-08-09T04:09:47.636Z,2.80
2022-08-09T04:12:30.468Z,3.15
2022-08-09T04:15:01.581Z,2.87
2022-08-09T04:17:37.860Z,2.90
2022-08-09T04:20:07.320Z,2.83
2022-08-09T04:22:34.497Z,3.72
2022-08-09T04:25:04.631Z,3.05
2022-08-09T04:27:32.826Z,2.67
2022-08-09T04:30:04.757Z,3.00
2022-08-09T04:32:34.019Z,3.13
2022-08-09T04:35:04.837Z,3.47
2022-08-09T04:37:45.239Z,3.33
2022-08-09T04:40:19.305Z,2.73
2022-08-09T04:42:56.945Z,3.83
2022-08-09T04:45:23.622Z,2.78
2022-08-09T04:47:59.369Z,2.95
2022-08-09T04:50:31.885Z,3.10
2022-08-09T04:53:13.443Z,2.93
2022-08-09T04:55:58.668Z,2.85
2022-08-09T04:58:32.792Z,3.28
2022-08-09T05:01:01.540Z,3.28
2022-08-09T05:03:42.548Z,3.15
2022-08-09T05:06:21.934Z,3.10
2022-08-09T05:09:00.698Z,2.95
2022-08-09T05:11:32.134Z,2.83
2022-08-09T05:14:01.859Z,2.45
2022-08-09T05:16:33.035Z,2.63
2022-08-09T05:19:00.652Z,2.70
2022-08-09T05:21:30.436Z,2.60
2022-08-09T05:24:04.614Z,2.92
2022-08-09T05:26:36.413Z,3.08
2022-08-09T05:29:17.724Z,2.30
2022-08-09T05:31:56.152Z,2.83
2022-08-09T05:34:30.028Z,3.03
2022-08-09T05:37:01.726Z,2.60
2022-08-09T05:39:35.758Z,2.50
2022-08-09T05:42:07.835Z,2.55
2022-08-09T05:44:35.936Z,3.10
2022-08-09T05:47:05.413Z,2.65
2022-08-09T05:50:25.853Z,3.00
2022-08-09T05:52:20.445Z,2.35
2022-08-09T05:54:49.175Z,2.85
2022-08-09T05:57:17.482Z,2.87
2022-08-09T05:59:45.743Z,2.95
2022-08-09T06:02:17.130Z,3.25
2022-08-09T06:04:47.466Z,2.85
2022-08-09T06:07:21.676Z,2.70
2022-08-09T06:10:01.756Z,2.63
2022-08-09T06:12:32.044Z,3.10
2022-08-09T06:15:02.192Z,3.00
2022-08-09T06:17:39.726Z,3.08
2022-08-09T06:20:08.251Z,3.05
2022-08-09T06:22:35.320Z,3.07
2022-08-09T06:25:01.985Z,2.85
2022-08-09T06:27:42.436Z,2.50
2022-08-09T06:30:10.207Z,2.65
2022-08-09T06:32:59.952Z,2.60
2022-08-09T06:35:56.441Z,2.50
2022-08-09T06:38:13.048Z,2.97
2022-08-09T06:40:42.569Z,2.55
2022-08-09T06:43:10.489Z,2.70
2022-08-09T06:46:05.463Z,2.80
2022-08-09T06:48:30.602Z,1.90
2022-08-09T06:50:58.524Z,2.75
2022-08-09T06:53:25.420Z,2.42
2022-08-09T06:55:52.201Z,2.85
2022-08-09T07:00:46.508Z,2.67
2022-08-09T07:01:08.173Z,2.90
2022-08-09T07:03:39.934Z,2.00
2022-08-09T07:06:20.054Z,2.28
2022-08-09T07:08:46.937Z,2.50
2022-08-09T07:11:25.198Z,2.33
2022-08-09T07:14:05.734Z,2.20
2022-08-09T07:16:44.010Z,2.00
2022-08-09T07:19:18.598Z,2.15
2022-08-09T07:21:50.166Z,2.30
2022-08-09T07:24:32.773Z,2.00
2022-08-09T07:27:10.790Z,1.67
2022-08-09T07:29:57.007Z,1.70
2022-08-09T07:32:32.434Z,2.20
2022-08-09T07:35:12.765Z,1.95
2022-08-09T07:37:45.726Z,1.30
2022-08-09T07:40:18.512Z,1.47
2022-08-09T07:43:03.263Z,1.58
2022-08-09T07:45:39.918Z,0.95
2022-08-09T07:48:29.496Z,1.20
2022-08-09T07:51:09.824Z,1.00
2022-08-09T07:54:04.936Z,1.17
2022-08-09T07:56:36.990Z,1.00
2022-08-09T07:59:14.206Z,0.95
2022-08-09T08:02:00.460Z,1.15
2022-08-09T08:04:32.213Z,0.70
2022-08-09T08:07:15.467Z,0.60
2022-08-09T08:09:53.502Z,0.80
2022-08-09T08:12:27.974Z,0.73
2022-08-09T08:14:59.828Z,0.50
2022-08-09T08:17:53.009Z,0.70
2022-08-09T08:20:13.911Z,0.33
2022-08-09T08:22:44.061Z,1.13
2022-08-09T08:25:18.283Z,0.50
2022-08-09T08:27:45.848Z,0.40
2022-08-09T08:30:18.765Z,0.35
2022-08-09T08:32:52.905Z,0.30
2022-08-09T08:35:22.234Z,0.50
2022-08-09T08:38:04.439Z,0.20
2022-08-09T08:40:36.024Z,0.30
2022-08-09T08:43:08.838Z,1.05
2022-08-09T08:46:32.478Z,0.40
2022-08-09T08:48:53.572Z,0.20
2022-08-09T08:51:25.767Z,0.30
2022-08-09T08:54:10.266Z,0.35
2022-08-09T08:56:50.913Z,0.20
2022-08-09T08:59:19.629Z,0.30
2022-08-09T09:01:52.385Z,0.30
2022-08-09T09:04:27.691Z,0.30
2022-08-09T09:07:00.446Z,0.22
2022-08-09T09:09:57.910Z,0.20
2022-08-09T09:12:22.111Z,0.20
2022-08-09T09:14:50.077Z,0.30
2022-08-09T09:17:18.846Z,1.20
2022-08-09T09:19:47.820Z,0.20
2022-08-09T09:22:16.962Z,0.20
2022-08-09T09:25:00.772Z,0.20
2022-08-09T09:28:06.803Z,0.20
2022-08-09T09:30:44.327Z,0.20
2022-08-09T09:33:17.488Z,0.20
2022-08-09T09:36:20.883Z,0.20
2022-08-09T09:38:59.437Z,0.20
2022-08-09T09:41:32.860Z,0.20
2022-08-09T09:44:11.642Z,0.30
2022-08-09T09:46:43.316Z,0.20
2022-08-09T09:49:56.489Z,0.65
2022-08-09T09:52:35.919Z,0.20
2022-08-09T09:55:24.330Z,0.30
2022-08-09T09:58:17.218Z,0.30
2022-08-09T10:00:52.969Z,0.47
2022-08-09T10:03:57.959Z,0.20
2022-08-09T10:06:37.984Z,0.10
2022-08-09T10:09:11.772Z,0.20
2022-08-09T10:12:26.869Z,0.20
2022-08-09T10:14:48.517Z,0.20
2022-08-09T10:17:55.034Z,0.20
2022-08-09T10:20:33.062Z,0.20
2022-08-09T10:23:23.729Z,0.40
2022-08-09T10:26:04.865Z,0.20
2022-08-09T10:28:38.872Z,0.20
2022-08-09T10:34:10.918Z,0.10
2022-08-09T10:36:42.767Z,0.15
2022-08-09T10:39:15.383Z,0.20
2022-08-09T10:41:42.900Z,0.25
2022-08-09T10:44:10.231Z,0.20
2022-08-09T10:47:28.171Z,0.20
2022-08-09T10:50:09.869Z,0.20
2022-08-09T10:52:52.171Z,0.50
2022-08-09T10:55:35.702Z,0.20
2022-08-09T10:58:31.043Z,0.20
2022-08-09T11:03:02.814Z,1.60
2022-08-09T11:04:19.699Z,0.20
2022-08-09T11:07:01.504Z,0.30
2022-08-09T11:09:47.376Z,0.20
2022-08-09T11:12:29.763Z,0.10
2022-08-09T11:15:34.040Z,0.20
2022-08-09T11:18:06.646Z,0.20
2022-08-09T11:20:53.298Z,1.48
2022-08-09T11:23:30.117Z,0.20
2022-08-09T11:25:56.849Z,0.20
2022-08-09T11:28:56.306Z,0.20
2022-08-09T11:31:52.883Z,0.20
2022-08-09T11:34:33.640Z,0.20
2022-08-09T11:37:07.487Z,0.22
2022-08-09T11:40:01.858Z,0.35
2022-08-09T11:42:52.762Z,0.20
2022-08-09T11:45:42.049Z,0.30
2022-08-09T11:48:26.353Z,0.17
2022-08-09T11:52:54.225Z,0.20
2022-08-09T11:54:13.711Z,0.20
2022-08-09T11:56:42.248Z,0.10
2022-08-09T11:59:30.482Z,0.20
2022-08-09T12:02:34.736Z,0.30
2022-08-09T12:04:57.980Z,0.20
2022-08-09T12:07:41.363Z,0.20
2022-08-09T12:10:32.124Z,0.20
2022-08-09T12:12:57.821Z,0.30
2022-08-09T12:15:49.761Z,0.30
2022-08-09T12:18:29.860Z,0.20
2022-08-09T12:20:57.079Z,0.57
2022-08-09T12:23:58.044Z,0.30
2022-08-09T12:26:25.307Z,0.20
2022-08-09T12:29:13.736Z,0.20
2022-08-09T12:31:58.875Z,0.20
2022-08-09T12:34:43.034Z,0.45
2022-08-09T12:37:23.818Z,0.40
2022-08-09T12:40:11.556Z,0.25
2022-08-09T12:42:44.295Z,0.20
2022-08-09T12:45:33.925Z,0.30
2022-08-09T12:47:59.326Z,0.20
2022-08-09T12:50:27.243Z,0.30
2022-08-09T12:53:17.700Z,0.20
2022-08-09T12:56:14.580Z,0.20
2022-08-09T12:58:28.714Z,0.20
2022-08-09T13:00:56.204Z,0.20
2022-08-09T13:03:57.346Z,0.20
2022-08-09T13:06:34.957Z,0.20
2022-08-09T13:09:12.580Z,0.20
2022-08-09T13:11:45.878Z,0.20
2022-08-09T13:14:42.183Z,0.20
2022-08-09T13:17:43.757Z,0.27
2022-08-09T13:20:14.407Z,0.20
2022-08-09T13:23:05.764Z,0.20
2022-08-09T13:25:42.970Z,0.20
2022-08-09T13:28:24.606Z,0.20
2022-08-09T13:32:13.679Z,0.30
2022-08-09T13:33:57.104Z,0.30
2022-08-09T13:36:41.841Z,0.20
2022-08-09T13:41:17.395Z,0.20
2022-08-09T13:42:10.968Z,0.20
2022-08-09T13:44:41.965Z,0.20
2022-08-09T13:47:28.933Z,0.28
2022-08-09T13:50:04.357Z,0.30
2022-08-09T13:52:39.397Z,0.22
2022-08-09T13:55:13.486Z,0.25
2022-08-09T13:57:56.175Z,0.20
2022-08-09T14:00:28.858Z,0.28
2022-08-09T14:03:03.544Z,0.38
2022-08-09T14:05:59.082Z,0.20
2022-08-09T14:08:29.775Z,0.20
2022-08-09T14:10:56.817Z,0.20
2022-08-09T14:14:15.643Z,0.50
2022-08-09T14:16:14.013Z,0.35
2022-08-09T14:18:45.170Z,0.40
2022-08-09T14:21:17.687Z,0.20
2022-08-09T14:23:54.477Z,0.30
2022-08-09T14:26:30.031Z,0.40
2022-08-09T14:29:08.276Z,0.30
2022-08-09T14:31:54.367Z,0.20
2022-08-09T14:34:31.742Z,0.28
2022-08-09T14:37:06.572Z,0.30
2022-08-09T14:39:46.396Z,0.30
2022-08-09T14:42:30.976Z,0.40
2022-08-09T14:45:01.017Z,0.20
2022-08-09T14:47:46.725Z,0.20
2022-08-09T14:50:16.104Z,0.50
2022-08-09T14:52:50.078Z,0.38
2022-08-09T14:55:20.430Z,0.30
2022-08-09T14:57:48.873Z,0.20
2022-08-09T15:00:15.972Z,0.30
2022-08-09T15:02:42.518Z,0.20
2022-08-09T15:05:15.184Z,0.13
2022-08-09T15:07:45.484Z,0.30
2022-08-09T15:10:15.925Z,0.20
2022-08-09T15:12:45.090Z,0.20
2022-08-09T15:15:13.353Z,0.20
2022-08-09T15:17:46.097Z,0.20
2022-08-09T15:20:15.414Z,0.35
2022-08-09T15:24:00.799Z,0.20
2022-08-09T15:25:52.087Z,0.20
2022-08-09T15:28:28.087Z,0.20
2022-08-09T15:31:08.644Z,0.20
2022-08-09T15:34:18.243Z,0.20
2022-08-09T15:36:29.159Z,0.20
2022-08-09T15:38:57.482Z,0.20
2022-08-09T15:41:31.449Z,0.30
2022-08-09T15:44:12.104Z,0.30
2022-08-09T15:46:40.404Z,0.20
2022-08-09T15:49:22.452Z,0.20
2022-08-09T15:52:03.390Z,0.20
2022-08-09T15:54:44.854Z,0.30
2022-08-09T15:57:35.066Z,0.30
2022-08-09T16:00:25.714Z,0.20
2022-08-09T16:02:56.391Z,0.40
2022-08-09T16:05:47.172Z,0.30
2022-08-09T16:08:30.187Z,0.20
2022-08-09T16:11:02.229Z,0.20
2022-08-09T16:14:04.057Z,0.98
2022-08-09T16:16:19.160Z,0.20
2022-08-09T16:18:48.154Z,0.20
2022-08-09T16:21:16.787Z,0.30
2022-08-09T16:23:48.529Z,0.28
2022-08-09T16:26:33.969Z,0.30
2022-08-09T16:29:11.152Z,0.30
2022-08-09T16:32:19.257Z,0.28
2022-08-09T16:34:56.637Z,0.20
2022-08-09T16:37:17.761Z,0.20
2022-08-09T16:39:54.730Z,0.20
2022-08-09T16:42:31.270Z,0.20
2022-08-09T16:44:58.898Z,0.20
2022-08-09T16:48:39.963Z,0.20
2022-08-09T16:50:31.821Z,0.20
2022-08-09T16:52:58.885Z,0.30
2022-08-09T16:55:26.648Z,0.20
2022-08-09T16:58:10.164Z,0.20
2022-08-09T17:00:42.731Z,0.20
2022-08-09T17:03:21.939Z,0.20
2022-08-09T17:06:07.905Z,0.30
2022-08-09T17:09:04.857Z,0.20
2022-08-09T17:11:40.781Z,0.28
2022-08-09T17:14:25.802Z,0.20
2022-08-09T17:16:59.503Z,0.30
2022-08-09T17:19:47.129Z,0.20
2022-08-09T17:22:15.967Z,0.20
2022-08-09T17:24:54.914Z,0.20
2022-08-09T17:27:25.149Z,0.20
2022-08-09T17:29:52.158Z,0.30
2022-08-09T17:32:20.380Z,0.30
2022-08-09T17:35:07.560Z,0.20
2022-08-09T17:38:11.244Z,0.20
2022-08-09T17:40:29.356Z,0.40
2022-08-09T17:42:59.804Z,0.20
2022-08-09T17:46:01.851Z,0.20
2022-08-09T17:48:29.175Z,0.20
2022-08-09T17:51:06.565Z,0.20
2022-08-09T17:53:47.846Z,0.20
2022-08-09T17:56:19.690Z,0.40
2022-08-09T17:58:47.163Z,0.20
2022-08-09T18:01:22.671Z,0.20
2022-08-09T18:03:55.485Z,0.40
2022-08-09T18:06:31.614Z,0.20
2022-08-09T18:09:05.856Z,0.35
2022-08-09T18:12:05.047Z,0.30
2022-08-09T18:14:23.764Z,0.20
2022-08-09T18:16:52.970Z,0.30
2022-08-09T18:20:54.368Z,0.20
2022-08-09T18:22:13.188Z,0.20
2022-08-09T18:24:46.026Z,0.20
2022-08-09T18:27:33.682Z,0.20
2022-08-09T18:30:38.744Z,0.20
2022-08-09T18:32:54.546Z,0.30
2022-08-09T18:35:58.083Z,0.20
2022-08-09T18:38:08.692Z,0.73
2022-08-09T18:40:38.985Z,1.20
2022-08-09T18:43:05.440Z,0.30
2022-08-09T18:46:48.616Z,0.43
2022-08-09T18:48:18.824Z,0.20
2022-08-09T18:50:55.123Z,0.22
2022-08-09T18:53:27.183Z,0.20
2022-08-09T18:56:14.970Z,0.20
2022-08-09T18:58:44.829Z,0.40
2022-08-09T19:01:12.000Z,0.30
2022-08-09T19:04:01.076Z,0.45
2022-08-09T19:06:28.872Z,0.20
2022-08-09T19:09:03.159Z,0.30
2022-08-09T19:11:37.829Z,0.40
2022-08-09T19:14:07.500Z,0.30
2022-08-09T19:16:49.907Z,0.20
2022-08-09T19:19:23.593Z,0.30
2022-08-09T19:22:06.686Z,0.80
2022-08-09T19:25:11.835Z,0.30
2022-08-09T19:27:22.196Z,0.25
2022-08-09T19:30:21.423Z,0.50
2022-08-09T19:32:37.270Z,0.20
2022-08-09T19:35:05.557Z,0.30
2022-08-09T19:37:52.744Z,0.50
2022-08-09T19:40:20.616Z,0.30
2022-08-09T19:42:49.783Z,0.20
2022-08-09T19:45:17.714Z,0.22
2022-08-09T19:47:48.479Z,0.20
2022-08-09T19:50:49.180Z,0.20
2022-08-09T19:53:06.814Z,0.20
2022-08-09T19:56:02.276Z,0.30
2022-08-09T19:58:30.212Z,0.20
2022-08-09T20:00:57.589Z,0.20
2022-08-09T20:04:10.892Z,0.20
2022-08-09T20:06:23.584Z,0.68
2022-08-09T20:08:56.854Z,0.20
2022-08-09T20:11:26.204Z,0.30
2022-08-09T20:13:56.200Z,0.30
2022-08-09T20:16:34.296Z,0.20
2022-08-09T20:19:49.235Z,0.20
2022-08-09T20:22:14.535Z,0.30
2022-08-09T20:24:42.009Z,0.40
2022-08-09T20:27:08.998Z,0.30
2022-08-09T20:29:39.499Z,0.40
2022-08-09T20:32:29.795Z,0.40
2022-08-09T20:34:55.671Z,0.30
2022-08-09T20:37:22.920Z,0.30
2022-08-09T20:40:14.705Z,0.40
2022-08-09T20:42:38.098Z,0.30
2022-08-09T20:47:54.987Z,0.30
2022-08-09T20:50:48.498Z,0.20
2022-08-09T20:53:22.770Z,0.30
2022-08-09T20:56:02.582Z,0.40
2022-08-09T20:58:32.901Z,0.20
2022-08-09T21:01:32.934Z,0.32
2022-08-09T21:05:48.482Z,0.40
2022-08-09T21:06:38.783Z,0.47
2022-08-09T21:09:14.131Z,0.20
2022-08-09T21:14:27.591Z,0.20
2022-08-09T21:16:57.928Z,0.20
2022-08-09T21:20:19.819Z,0.25
2022-08-09T21:22:35.530Z,0.20
2022-08-09T21:25:20.862Z,0.20
2022-08-09T21:27:51.095Z,0.20
2022-08-09T21:30:18.941Z,0.20
2022-08-09T21:32:53.023Z,0.20
2022-08-09T21:35:21.787Z,0.20
2022-08-09T21:37:59.998Z,0.20
2022-08-09T21:40:30.142Z,0.20
2022-08-09T21:42:59.492Z,0.20
2022-08-09T21:45:27.846Z,0.20
2022-08-09T21:48:03.752Z,0.20
2022-08-09T21:50:38.847Z,0.20
2022-08-09T21:53:19.811Z,0.38
2022-08-09T21:55:58.439Z,0.30
2022-08-09T21:58:30.989Z,0.20
2022-08-09T22:00:58.019Z,0.20
2022-08-09T22:03:27.602Z,0.20
2022-08-09T22:05:57.976Z,0.22
2022-08-09T22:08:28.390Z,0.20
2022-08-09T22:11:00.969Z,0.20
2022-08-09T22:13:45.083Z,0.47
2022-08-09T22:16:12.069Z,0.30
2022-08-09T22:18:53.412Z,0.20
2022-08-09T22:21:49.596Z,0.10
2022-08-09T22:24:17.111Z,0.17
2022-08-09T22:26:51.574Z,0.20
2022-08-09T22:29:19.319Z,0.10
2022-08-09T22:31:56.698Z,0.35
2022-08-09T22:34:27.939Z,0.20
2022-08-09T22:36:57.336Z,0.20
2022-08-09T22:39:56.306Z,0.20
2022-08-09T22:42:21.968Z,0.25
2022-08-09T22:48:04.533Z,0.20
2022-08-09T22:48:18.808Z,0.22
2022-08-09T22:50:29.881Z,0.20
2022-08-09T22:53:03.492Z,0.13
2022-08-09T22:56:29.851Z,0.25
2022-08-09T22:58:32.703Z,0.10
2022-08-09T23:01:02.387Z,0.13
2022-08-09T23:03:31.277Z,0.20
2022-08-09T23:06:34.673Z,0.20
2022-08-09T23:09:08.025Z,0.13
2022-08-09T23:11:34.845Z,0.20
2022-08-09T23:14:03.849Z,0.20
2022-08-09T23:16:31.456Z,0.20
2022-08-09T23:18:57.978Z,0.20
2022-08-09T23:21:31.284Z,0.13
2022-08-09T23:24:05.458Z,0.32
2022-08-09T23:26:35.829Z,0.15
2022-08-09T23:29:05.341Z,0.20
2022-08-09T23:31:34.225Z,0.40
2022-08-09T23:34:01.052Z,0.20
2022-08-09T23:36:31.080Z,0.20
2022-08-09T23:38:58.446Z,0.30
2022-08-09T23:41:28.367Z,0.30
2022-08-09T23:44:01.194Z,0.30
2022-08-09T23:46:29.283Z,0.20
2022-08-09T23:48:56.491Z,0.20
2022-08-09T23:51:23.034Z,0.20
2022-08-09T23:53:52.600Z,0.20
2022-08-09T23:56:39.509Z,0.30
2022-08-09T23:59:12.310Z,0.20
